TAF Text Data
IDs:
Format:
Raw Decoded Include METAR

Data at: 1218 UTC 10 Jul 2020

KPSM 101128Z 1012/1112 VRB03KT 5SM BR SCT004 BKN250
  FM101300 13006KT P6SM BKN250
  FM102000 10008KT 5SM BR BKN012
  FM110200 09010KT 3SM -SHRA BR OVC003